Terminal Aerodrome Forecast
Issued by NWS

Home | Current Version | Previous Version | Text Only | Print | Product List | Glossary On
Versions: 1 2 3 4 5 6 7 8 9 10 11 12 13 14 15 16 17 18 19 20 21 22 23 24 25 26 27 28
249
FTUS42 KGSP 120537
TAFHKY
TAF
KHKY 120537Z 1206/1306 05003KT P6SM BKN060
     FM122100 25006KT P6SM BKN050
     FM130000 28008KT P6SM SCT060=

USA.gov is the U.S. government's official web portal to all federal, state and local government web resources and services.